CheckWX is a tool to help pilots better visualize weather data.  It is not intended as a substitute for an official pre-flight weather briefing.

02:51:47 UTC

EHAM METAR
Amsterdam Schiphol Airport
Amsterdam, The Netherlands
Current

27 mins ago

EHAM 210225Z 09007KT CAVOK 11/06 Q1022 NOSIG
Observed
Sep-21 @ 02:25 UTC
Wind
  • 090° at 7 KTS
Visibility
10,000+ meters
Flight Rules
VFR
Cloud Levels
  • Clear skies
Temperature
11°C / 52°F
Dewpoint
C / 43°F
Humidity
72%
Altimeter
30.18" Hg
Pressure
1021.92 hPa
Previous

57 mins ago

EHAM 210155Z 09007KT CAVOK 11/06 Q1022 NOSIG
Observed
Sep-21 @ 01:55 UTC
Wind
  • 090° at 7 KTS
Visibility
10,000+ meters
Flight Rules
VFR
Cloud Levels
  • Clear skies
Temperature
11°C / 52°F
Dewpoint
C / 43°F
Humidity
72%
Altimeter
30.18" Hg
Pressure
1021.92 hPa
Previous

1 hour ago

EHAM 210125Z 09007KT CAVOK 11/06 Q1022 NOSIG
Observed
Sep-21 @ 01:25 UTC
Wind
  • 090° at 7 KTS
Visibility
10,000+ meters
Flight Rules
VFR
Cloud Levels
  • Clear skies
Temperature
11°C / 52°F
Dewpoint
C / 43°F
Humidity
72%
Altimeter
30.18" Hg
Pressure
1021.92 hPa